createdAt,value
2023-03-26T00:01:41.535Z,1.30
2023-03-26T00:04:09.080Z,1.53
2023-03-26T00:06:40.018Z,1.60
2023-03-26T00:09:08.695Z,1.70
2023-03-26T00:11:35.961Z,1.40
2023-03-26T00:14:03.850Z,1.60
2023-03-26T00:16:32.029Z,1.40
2023-03-26T00:19:00.077Z,1.53
2023-03-26T00:21:28.746Z,1.57
2023-03-26T00:23:56.787Z,1.50
2023-03-26T00:26:24.017Z,1.63
2023-03-26T00:28:51.158Z,1.50
2023-03-26T00:31:18.766Z,1.40
2023-03-26T00:33:45.975Z,1.40
2023-03-26T00:36:17.672Z,1.30
2023-03-26T00:38:46.845Z,1.40
2023-03-26T00:41:22.794Z,1.20
2023-03-26T00:43:51.482Z,1.30
2023-03-26T00:46:18.804Z,1.40
2023-03-26T00:48:46.354Z,1.30
2023-03-26T00:51:15.460Z,1.50
2023-03-26T00:53:43.452Z,1.47
2023-03-26T00:56:10.769Z,1.50
2023-03-26T00:58:38.078Z,1.40
2023-03-26T01:01:07.838Z,1.33
2023-03-26T01:03:35.984Z,1.40
2023-03-26T01:06:10.950Z,1.50
2023-03-26T01:09:00.402Z,1.40
2023-03-26T01:11:30.220Z,1.50
2023-03-26T01:14:07.430Z,1.60
2023-03-26T01:16:39.964Z,1.50
2023-03-26T01:19:10.339Z,1.70
2023-03-26T01:21:39.625Z,1.53
2023-03-26T01:24:08.284Z,1.53
2023-03-26T01:26:54.300Z,1.70
2023-03-26T01:29:41.705Z,1.70
2023-03-26T01:32:23.027Z,1.60
2023-03-26T01:34:54.131Z,1.57
2023-03-26T01:37:34.972Z,1.50
2023-03-26T01:40:08.440Z,1.60
2023-03-26T01:42:42.931Z,1.70
2023-03-26T01:45:19.037Z,1.50
2023-03-26T01:47:49.902Z,1.80
2023-03-26T01:50:17.244Z,1.50
2023-03-26T01:52:44.526Z,1.70
2023-03-26T01:55:11.869Z,1.70
2023-03-26T01:57:57.520Z,1.80
2023-03-26T02:00:28.312Z,1.70
2023-03-26T02:03:01.880Z,1.90
2023-03-26T02:05:32.069Z,1.60
2023-03-26T02:08:11.991Z,1.60
2023-03-26T02:10:44.122Z,1.80
2023-03-26T02:13:12.249Z,1.70
2023-03-26T02:15:40.648Z,1.50
2023-03-26T02:18:10.874Z,1.60
2023-03-26T02:20:38.358Z,1.70
2023-03-26T02:23:06.643Z,2.00
2023-03-26T02:25:35.247Z,1.90
2023-03-26T02:28:02.751Z,1.70
2023-03-26T02:30:30.685Z,1.60
2023-03-26T02:32:59.209Z,1.70
2023-03-26T02:35:26.792Z,1.70
2023-03-26T02:37:54.048Z,1.70
2023-03-26T02:40:22.333Z,1.93
2023-03-26T02:42:49.910Z,1.77
2023-03-26T02:45:17.257Z,1.90
2023-03-26T02:47:46.105Z,1.80
2023-03-26T02:50:13.362Z,1.80
2023-03-26T02:52:40.512Z,1.90
2023-03-26T02:55:07.773Z,1.80
2023-03-26T02:57:35.117Z,1.60
2023-03-26T03:00:05.846Z,1.80
2023-03-26T03:02:33.023Z,1.90
2023-03-26T03:05:01.711Z,1.97
2023-03-26T03:07:29.093Z,1.90
2023-03-26T03:09:56.289Z,1.70
2023-03-26T03:12:23.407Z,1.67
2023-03-26T03:14:50.615Z,1.73
2023-03-26T03:17:20.004Z,1.73
2023-03-26T03:19:47.341Z,1.80
2023-03-26T03:22:14.460Z,1.80
2023-03-26T03:24:43.746Z,1.90
2023-03-26T03:27:10.940Z,2.00
2023-03-26T03:29:38.067Z,1.90
2023-03-26T03:32:05.544Z,2.03
2023-03-26T03:34:32.663Z,1.80
2023-03-26T03:36:59.775Z,2.07
2023-03-26T03:39:26.911Z,1.80
2023-03-26T03:41:54.084Z,1.90
2023-03-26T03:44:21.244Z,1.90
2023-03-26T03:46:49.238Z,1.73
2023-03-26T03:49:16.885Z,1.80
2023-03-26T03:51:44.060Z,2.07
2023-03-26T03:54:11.283Z,2.00
2023-03-26T03:56:39.029Z,1.83
2023-03-26T03:59:06.256Z,2.07
2023-03-26T04:01:33.381Z,2.20
2023-03-26T04:04:00.783Z,2.07
2023-03-26T04:06:30.152Z,2.10
2023-03-26T04:08:57.795Z,2.20
2023-03-26T04:11:24.919Z,1.90
2023-03-26T04:13:52.060Z,2.40
2023-03-26T04:16:19.496Z,2.10
2023-03-26T04:18:46.683Z,2.13
2023-03-26T04:21:15.889Z,2.17
2023-03-26T04:23:43.144Z,1.87
2023-03-26T04:26:13.781Z,1.93
2023-03-26T04:28:48.545Z,2.00
2023-03-26T04:31:24.620Z,1.90
2023-03-26T04:34:00.037Z,1.90
2023-03-26T04:36:28.628Z,1.87
2023-03-26T04:38:56.500Z,2.00
2023-03-26T04:41:26.379Z,1.90
2023-03-26T04:43:54.241Z,1.80
2023-03-26T04:46:22.200Z,1.93
2023-03-26T04:48:49.712Z,1.60
2023-03-26T04:51:20.125Z,1.80
2023-03-26T04:53:54.981Z,1.70
2023-03-26T04:56:37.491Z,2.00
2023-03-26T04:59:04.780Z,1.90
2023-03-26T05:01:32.176Z,2.00
2023-03-26T05:03:59.758Z,1.83
2023-03-26T05:06:28.737Z,1.80
2023-03-26T05:08:56.215Z,1.90
2023-03-26T05:11:23.573Z,1.80
2023-03-26T05:13:50.715Z,1.80
2023-03-26T05:16:17.882Z,1.80
2023-03-26T05:18:46.500Z,1.87
2023-03-26T05:21:13.651Z,1.70
2023-03-26T05:23:41.034Z,1.80
2023-03-26T05:26:08.303Z,1.70
2023-03-26T05:28:35.621Z,1.70
2023-03-26T05:31:03.054Z,1.63
2023-03-26T05:33:30.291Z,1.60
2023-03-26T05:36:01.440Z,1.70
2023-03-26T05:38:29.348Z,1.50
2023-03-26T05:41:04.370Z,1.70
2023-03-26T05:43:31.794Z,1.60
2023-03-26T05:45:58.996Z,1.63
2023-03-26T05:48:26.468Z,1.60
2023-03-26T05:50:54.991Z,1.40
2023-03-26T05:53:23.268Z,1.67
2023-03-26T05:55:55.705Z,1.53
2023-03-26T05:58:22.870Z,1.43
2023-03-26T06:00:50.053Z,1.30
2023-03-26T06:03:17.369Z,1.57
2023-03-26T06:05:44.710Z,1.50
2023-03-26T06:08:11.890Z,1.53
2023-03-26T06:10:39.569Z,1.50
2023-03-26T06:13:06.816Z,1.60
2023-03-26T06:15:35.037Z,1.70
2023-03-26T06:18:02.341Z,1.60
2023-03-26T06:20:29.563Z,1.37
2023-03-26T06:22:56.687Z,1.40
2023-03-26T06:25:23.813Z,1.50
2023-03-26T06:27:51.049Z,1.40
2023-03-26T06:30:18.240Z,1.50
2023-03-26T06:32:45.545Z,1.67
2023-03-26T06:35:12.760Z,1.40
2023-03-26T06:37:39.872Z,1.47
2023-03-26T06:40:07.471Z,1.37
2023-03-26T06:43:08.719Z,1.47
2023-03-26T06:45:21.907Z,1.60
2023-03-26T06:47:49.183Z,1.70
2023-03-26T06:50:16.323Z,1.60
2023-03-26T06:52:43.526Z,1.77
2023-03-26T06:55:10.884Z,1.50
2023-03-26T06:57:38.125Z,1.60
2023-03-26T07:00:05.836Z,1.37
2023-03-26T07:02:33.160Z,1.30
2023-03-26T07:05:00.340Z,1.20
2023-03-26T07:07:27.459Z,1.40
2023-03-26T07:09:54.586Z,1.60
2023-03-26T07:12:21.728Z,1.60
2023-03-26T07:14:48.834Z,1.60
2023-03-26T07:17:16.142Z,1.87
2023-03-26T07:19:43.332Z,1.93
2023-03-26T07:22:28.503Z,1.40
2023-03-26T07:24:56.189Z,1.60
2023-03-26T07:27:29.727Z,1.90
2023-03-26T07:30:09.329Z,1.60
2023-03-26T07:32:45.998Z,1.57
2023-03-26T07:35:13.103Z,1.70
2023-03-26T07:37:48.406Z,1.60
2023-03-26T07:40:16.044Z,1.80
2023-03-26T07:42:46.180Z,1.50
2023-03-26T07:45:19.377Z,1.50
2023-03-26T07:47:49.401Z,1.60
2023-03-26T07:50:18.978Z,1.90
2023-03-26T07:52:46.504Z,1.30
2023-03-26T07:55:14.789Z,1.60
2023-03-26T07:57:50.987Z,1.50
2023-03-26T08:00:38.084Z,1.50
2023-03-26T08:03:23.501Z,1.63
2023-03-26T08:06:11.926Z,1.40
2023-03-26T08:08:39.097Z,1.80
2023-03-26T08:11:12.766Z,1.50
2023-03-26T08:13:45.740Z,1.30
2023-03-26T08:16:19.362Z,1.50
2023-03-26T08:18:50.539Z,1.53
2023-03-26T08:21:25.539Z,1.57
2023-03-26T08:23:59.789Z,1.50
2023-03-26T08:26:38.602Z,1.30
2023-03-26T08:29:05.742Z,1.53
2023-03-26T08:31:35.025Z,1.47
2023-03-26T08:34:02.688Z,1.30
2023-03-26T08:36:29.992Z,1.10
2023-03-26T08:38:59.469Z,1.50
2023-03-26T08:41:40.689Z,1.13
2023-03-26T08:44:28.984Z,1.33
2023-03-26T08:46:56.167Z,1.40
2023-03-26T08:49:24.889Z,1.40
2023-03-26T08:51:52.985Z,1.40
2023-03-26T08:54:20.080Z,1.37
2023-03-26T08:56:53.248Z,1.40
2023-03-26T08:59:38.744Z,1.43
2023-03-26T09:02:22.352Z,1.43
2023-03-26T09:04:52.824Z,1.40
2023-03-26T09:07:28.926Z,1.33
2023-03-26T09:10:04.969Z,1.50
2023-03-26T09:12:50.857Z,1.27
2023-03-26T09:15:21.296Z,1.30
2023-03-26T09:17:58.063Z,1.20
2023-03-26T09:20:49.915Z,1.30
2023-03-26T09:23:17.044Z,1.40
2023-03-26T09:25:56.297Z,1.30
2023-03-26T09:28:42.411Z,1.20
2023-03-26T09:31:18.782Z,1.30
2023-03-26T09:34:04.211Z,1.40
2023-03-26T09:36:43.458Z,1.20
2023-03-26T09:39:17.391Z,1.20
2023-03-26T09:41:52.049Z,1.30
2023-03-26T09:44:19.164Z,1.30
2023-03-26T09:46:52.518Z,1.60
2023-03-26T09:49:31.901Z,1.50
2023-03-26T09:51:58.995Z,1.20
2023-03-26T09:54:26.081Z,1.30
2023-03-26T09:56:59.295Z,1.30
2023-03-26T09:59:41.785Z,1.40
2023-03-26T10:02:46.539Z,1.30
2023-03-26T10:05:13.488Z,1.30
2023-03-26T10:08:10.363Z,1.40
2023-03-26T10:10:49.515Z,1.30
2023-03-26T10:13:19.509Z,1.10
2023-03-26T10:15:46.799Z,1.47
2023-03-26T10:18:27.168Z,1.13
2023-03-26T10:20:59.475Z,1.30
2023-03-26T10:23:35.830Z,1.37
2023-03-26T10:26:04.325Z,1.20
2023-03-26T10:28:46.878Z,1.10
2023-03-26T10:31:14.063Z,1.30
2023-03-26T10:33:41.224Z,1.27
2023-03-26T10:36:26.980Z,1.20
2023-03-26T10:39:36.330Z,1.40
2023-03-26T10:42:10.624Z,1.43
2023-03-26T10:44:37.724Z,1.40
2023-03-26T10:47:43.271Z,1.60
2023-03-26T10:50:23.235Z,1.63
2023-03-26T10:52:55.618Z,1.23
2023-03-26T10:55:27.832Z,1.30
2023-03-26T10:58:03.808Z,1.30
2023-03-26T11:00:31.284Z,1.50
2023-03-26T11:03:17.349Z,1.30
2023-03-26T11:05:56.533Z,1.40
2023-03-26T11:08:43.693Z,1.20
2023-03-26T11:11:45.043Z,1.40
2023-03-26T11:14:33.733Z,1.40
2023-03-26T11:17:05.815Z,2.33
2023-03-26T11:19:46.158Z,1.40
2023-03-26T11:22:30.968Z,1.30
2023-03-26T11:25:16.626Z,1.40
2023-03-26T11:28:11.257Z,1.40
2023-03-26T11:30:42.199Z,1.70
2023-03-26T11:33:12.040Z,1.50
2023-03-26T11:35:41.864Z,1.30
2023-03-26T11:38:37.729Z,1.57
2023-03-26T11:41:06.319Z,1.60
2023-03-26T11:43:37.101Z,1.50
2023-03-26T11:46:06.788Z,1.67
2023-03-26T11:48:46.246Z,1.20
2023-03-26T11:51:23.701Z,1.30
2023-03-26T11:53:50.846Z,1.30
2023-03-26T11:56:20.706Z,1.37
2023-03-26T11:58:53.883Z,1.40
2023-03-26T12:01:29.881Z,1.47
2023-03-26T12:03:59.025Z,1.50
2023-03-26T12:06:28.820Z,1.60
2023-03-26T12:08:57.011Z,1.60
2023-03-26T12:11:28.651Z,1.50
2023-03-26T12:13:59.315Z,1.50
2023-03-26T12:16:27.261Z,1.60
2023-03-26T12:19:08.142Z,1.50
2023-03-26T12:21:51.344Z,1.60
2023-03-26T12:24:26.543Z,1.50
2023-03-26T12:26:57.914Z,1.67
2023-03-26T12:29:25.099Z,1.70
2023-03-26T12:31:52.566Z,1.50
2023-03-26T12:34:21.595Z,1.50
2023-03-26T12:36:49.982Z,1.50
2023-03-26T12:40:10.664Z,1.23
2023-03-26T12:44:53.471Z,1.27
2023-03-26T12:45:16.101Z,1.40
2023-03-26T12:47:56.582Z,1.63
2023-03-26T12:50:35.877Z,1.67
2023-03-26T12:53:06.159Z,1.70
2023-03-26T12:55:35.307Z,1.20
2023-03-26T12:58:19.932Z,1.60
2023-03-26T13:00:51.454Z,1.40
2023-03-26T13:03:45.064Z,1.30
2023-03-26T13:06:26.533Z,1.33
2023-03-26T13:08:57.482Z,1.77
2023-03-26T13:11:57.122Z,1.60
2023-03-26T13:14:33.867Z,1.40
2023-03-26T13:17:16.450Z,1.60
2023-03-26T13:19:54.784Z,1.60
2023-03-26T13:22:47.221Z,1.30
2023-03-26T13:25:19.473Z,1.50
2023-03-26T13:27:49.439Z,1.60
2023-03-26T13:30:48.881Z,1.50
2023-03-26T13:33:20.909Z,1.50
2023-03-26T13:35:50.761Z,1.73
2023-03-26T13:38:39.966Z,1.70
2023-03-26T13:41:07.277Z,1.70
2023-03-26T13:43:49.349Z,1.47
2023-03-26T13:46:16.663Z,1.40
2023-03-26T13:48:53.233Z,1.50
2023-03-26T13:51:24.756Z,1.57
2023-03-26T13:53:55.276Z,1.60
2023-03-26T13:56:25.991Z,1.50
2023-03-26T13:58:57.028Z,1.57
2023-03-26T14:01:36.227Z,1.70
2023-03-26T14:04:19.756Z,1.57
2023-03-26T14:09:31.958Z,1.50
2023-03-26T14:12:22.072Z,1.40
2023-03-26T14:15:04.348Z,1.60
2023-03-26T14:17:34.637Z,1.90
2023-03-26T14:20:22.071Z,1.50
2023-03-26T14:22:55.592Z,1.37
2023-03-26T14:25:41.225Z,1.50
2023-03-26T14:28:27.026Z,1.50
2023-03-26T14:30:59.593Z,1.40
2023-03-26T14:33:45.701Z,1.60
2023-03-26T14:36:15.704Z,1.47
2023-03-26T14:38:45.806Z,1.60
2023-03-26T14:41:22.521Z,1.40
2023-03-26T14:44:08.109Z,1.60
2023-03-26T14:46:50.580Z,1.50
2023-03-26T14:49:26.957Z,1.40
2023-03-26T14:52:02.915Z,1.60
2023-03-26T14:54:32.153Z,1.70
2023-03-26T14:57:02.059Z,1.50
2023-03-26T14:59:40.732Z,1.70
2023-03-26T15:02:11.001Z,1.60
2023-03-26T15:05:08.158Z,1.50
2023-03-26T15:07:41.520Z,1.57
2023-03-26T15:10:14.519Z,1.63
2023-03-26T15:13:00.422Z,1.50
2023-03-26T15:15:46.495Z,1.60
2023-03-26T15:18:40.299Z,1.20
2023-03-26T15:21:10.530Z,1.50
2023-03-26T15:23:40.712Z,1.50
2023-03-26T15:26:27.470Z,1.40
2023-03-26T15:28:54.672Z,1.67
2023-03-26T15:31:36.677Z,1.60
2023-03-26T15:34:06.668Z,1.33
2023-03-26T15:36:58.786Z,1.50
2023-03-26T15:40:10.047Z,1.40
2023-03-26T15:42:51.415Z,1.70
2023-03-26T15:45:22.400Z,1.30
2023-03-26T15:47:49.742Z,1.37
2023-03-26T15:50:32.308Z,1.37
2023-03-26T15:53:02.215Z,1.43
2023-03-26T15:55:33.012Z,1.40
2023-03-26T15:58:12.277Z,1.60
2023-03-26T16:00:44.857Z,1.60
2023-03-26T16:03:11.976Z,1.73
2023-03-26T16:05:47.894Z,1.60
2023-03-26T16:08:39.094Z,1.50
2023-03-26T16:11:12.518Z,1.60
2023-03-26T16:13:46.020Z,1.37
2023-03-26T16:16:16.396Z,1.50
2023-03-26T16:19:19.148Z,1.50
2023-03-26T16:21:56.655Z,1.40
2023-03-26T16:24:27.292Z,1.57
2023-03-26T16:27:03.226Z,1.43
2023-03-26T16:29:30.556Z,1.30
2023-03-26T16:32:16.442Z,1.50
2023-03-26T16:34:50.505Z,2.07
2023-03-26T16:37:39.774Z,1.40
2023-03-26T16:40:22.551Z,1.30
2023-03-26T16:42:56.004Z,1.50
2023-03-26T16:45:32.767Z,1.57
2023-03-26T16:48:06.224Z,1.50
2023-03-26T16:50:33.474Z,1.57
2023-03-26T16:53:09.392Z,1.50
2023-03-26T16:55:36.515Z,1.60
2023-03-26T16:58:17.119Z,1.53
2023-03-26T17:00:55.569Z,1.40
2023-03-26T17:03:28.236Z,1.70
2023-03-26T17:05:58.208Z,1.60
2023-03-26T17:08:36.918Z,1.60
2023-03-26T17:11:04.571Z,1.73
2023-03-26T17:13:31.673Z,1.50
2023-03-26T17:15:59.292Z,1.60
2023-03-26T17:18:45.645Z,1.43
2023-03-26T17:21:18.791Z,1.43
2023-03-26T17:23:55.327Z,1.57
2023-03-26T17:26:42.186Z,1.50
2023-03-26T17:29:21.712Z,1.50
2023-03-26T17:31:48.890Z,1.60
2023-03-26T17:34:34.726Z,1.60
2023-03-26T17:37:04.152Z,1.73
2023-03-26T17:39:40.487Z,1.70
2023-03-26T17:42:27.717Z,2.27
2023-03-26T17:44:55.997Z,1.70
2023-03-26T17:47:26.249Z,2.10
2023-03-26T17:50:02.328Z,1.50
2023-03-26T17:52:48.061Z,1.70
2023-03-26T17:55:22.973Z,1.57
2023-03-26T17:57:56.767Z,1.70
2023-03-26T18:00:26.075Z,1.50
2023-03-26T18:02:57.212Z,1.60
2023-03-26T18:05:26.528Z,1.50
2023-03-26T18:08:06.558Z,1.50
2023-03-26T18:10:39.758Z,1.40
2023-03-26T18:13:06.873Z,1.53
2023-03-26T18:15:39.964Z,1.40
2023-03-26T18:18:13.064Z,1.40
2023-03-26T18:20:43.817Z,1.47
2023-03-26T18:23:13.012Z,1.93
2023-03-26T18:25:41.044Z,1.50
2023-03-26T18:28:08.274Z,1.80
2023-03-26T18:30:45.559Z,1.70
2023-03-26T18:33:13.665Z,2.10
2023-03-26T18:35:41.522Z,2.13
2023-03-26T18:38:13.472Z,1.53
2023-03-26T18:40:43.041Z,1.50
2023-03-26T18:43:34.155Z,1.50
2023-03-26T18:46:02.301Z,1.60
2023-03-26T18:48:29.732Z,1.40
2023-03-26T18:51:05.852Z,1.40
2023-03-26T18:53:38.492Z,1.40
2023-03-26T18:56:19.467Z,1.50
2023-03-26T18:58:51.183Z,1.70
2023-03-26T19:01:25.445Z,1.57
2023-03-26T19:03:53.996Z,1.47
2023-03-26T19:06:21.397Z,1.40
2023-03-26T19:08:48.739Z,1.40
2023-03-26T19:11:17.333Z,1.40
2023-03-26T19:13:46.319Z,1.40
2023-03-26T19:16:25.156Z,1.63
2023-03-26T19:18:53.033Z,1.60
2023-03-26T19:21:23.267Z,1.50
2023-03-26T19:23:51.017Z,1.50
2023-03-26T19:26:18.994Z,1.50
2023-03-26T19:28:51.465Z,1.57
2023-03-26T19:31:32.807Z,1.50
2023-03-26T19:34:01.703Z,1.50
2023-03-26T19:36:31.540Z,1.50
2023-03-26T19:38:58.672Z,1.63
2023-03-26T19:41:27.362Z,1.40
2023-03-26T19:43:56.194Z,1.60
2023-03-26T19:46:23.725Z,1.40
2023-03-26T19:48:54.732Z,2.17
2023-03-26T19:51:24.005Z,1.50
2023-03-26T19:53:54.851Z,1.60
2023-03-26T19:56:22.900Z,1.40
2023-03-26T19:58:50.568Z,1.40
2023-03-26T20:01:22.092Z,1.40
2023-03-26T20:03:51.690Z,1.20
2023-03-26T20:06:23.688Z,1.10
2023-03-26T20:08:55.605Z,1.30
2023-03-26T20:11:24.069Z,1.60
2023-03-26T20:13:52.277Z,1.30
2023-03-26T20:16:27.337Z,1.40
2023-03-26T20:18:57.326Z,1.30
2023-03-26T20:21:25.897Z,1.40
2023-03-26T20:23:53.678Z,1.40
2023-03-26T20:26:21.262Z,1.17
2023-03-26T20:28:52.897Z,1.30
2023-03-26T20:31:26.161Z,1.30
2023-03-26T20:33:54.073Z,1.20
2023-03-26T20:36:34.127Z,1.20
2023-03-26T20:39:05.990Z,1.40
2023-03-26T20:41:34.132Z,1.27
2023-03-26T20:44:03.663Z,1.30
2023-03-26T20:46:33.025Z,1.40
2023-03-26T20:49:00.282Z,1.10
2023-03-26T20:51:28.828Z,1.60
2023-03-26T20:53:56.860Z,1.30
2023-03-26T20:56:24.327Z,1.40
2023-03-26T20:59:10.009Z,1.23
2023-03-26T21:01:38.677Z,1.33
2023-03-26T21:04:06.319Z,1.40
2023-03-26T21:06:33.548Z,1.50
2023-03-26T21:09:01.155Z,1.40
2023-03-26T21:11:34.495Z,1.30
2023-03-26T21:14:08.864Z,1.50
2023-03-26T21:16:36.374Z,1.30
2023-03-26T21:19:04.439Z,1.30
2023-03-26T21:21:40.356Z,1.23
2023-03-26T21:24:10.450Z,1.20
2023-03-26T21:26:43.814Z,1.30
2023-03-26T21:29:11.980Z,1.33
2023-03-26T21:31:39.369Z,1.40
2023-03-26T21:34:07.311Z,1.20
2023-03-26T21:36:35.165Z,1.40
2023-03-26T21:39:03.235Z,1.37
2023-03-26T21:41:41.567Z,1.50
2023-03-26T21:44:08.828Z,1.47
2023-03-26T21:46:36.656Z,1.40
2023-03-26T21:49:03.967Z,1.30
2023-03-26T21:51:32.026Z,1.30
2023-03-26T21:53:59.337Z,1.37
2023-03-26T21:56:36.358Z,1.30
2023-03-26T21:59:21.941Z,1.30
2023-03-26T22:02:09.353Z,1.20
2023-03-26T22:04:39.471Z,1.40
2023-03-26T22:07:14.996Z,1.30
2023-03-26T22:09:43.323Z,1.50
2023-03-26T22:12:10.573Z,1.50
2023-03-26T22:14:38.024Z,1.30
2023-03-26T22:17:05.438Z,1.50
2023-03-26T22:19:34.420Z,1.50
2023-03-26T22:22:01.695Z,1.30
2023-03-26T22:24:29.007Z,1.40
2023-03-26T22:26:56.464Z,1.60
2023-03-26T22:29:23.682Z,1.60
2023-03-26T22:31:51.152Z,1.60
2023-03-26T22:34:19.589Z,1.30
2023-03-26T22:36:46.860Z,1.40
2023-03-26T22:39:14.280Z,1.30
2023-03-26T22:41:41.527Z,1.30
2023-03-26T22:44:19.725Z,1.40
2023-03-26T22:46:49.259Z,1.40
2023-03-26T22:49:16.769Z,1.67
2023-03-26T22:51:44.296Z,1.60
2023-03-26T22:54:11.695Z,1.30
2023-03-26T22:56:38.913Z,1.50
2023-03-26T22:59:06.050Z,1.30
2023-03-26T23:01:34.338Z,1.50
2023-03-26T23:04:01.602Z,1.40
2023-03-26T23:06:28.821Z,1.50
2023-03-26T23:08:56.973Z,1.53
2023-03-26T23:11:24.319Z,1.50
2023-03-26T23:13:51.747Z,1.40
2023-03-26T23:16:20.198Z,1.43
2023-03-26T23:18:47.513Z,1.43
2023-03-26T23:21:15.944Z,1.70
2023-03-26T23:23:43.116Z,1.50
2023-03-26T23:26:10.832Z,1.57
2023-03-26T23:28:38.365Z,1.30
2023-03-26T23:31:06.352Z,1.40
2023-03-26T23:33:35.357Z,1.60
2023-03-26T23:36:08.819Z,1.40
2023-03-26T23:38:43.994Z,1.50
2023-03-26T23:41:15.722Z,1.60
2023-03-26T23:43:54.137Z,1.60
2023-03-26T23:46:23.471Z,1.50
2023-03-26T23:48:55.110Z,1.60
2023-03-26T23:51:22.486Z,1.50
2023-03-26T23:53:49.930Z,1.60
2023-03-26T23:56:17.305Z,1.80
2023-03-26T23:58:44.565Z,1.70
